createdAt,value
2019-05-17T00:01:37.610Z,9.27
2019-05-17T00:04:07.410Z,9.29
2019-05-17T00:06:37.235Z,9.29
2019-05-17T00:09:07.646Z,9.28
2019-05-17T00:11:37.262Z,9.28
2019-05-17T00:14:06.931Z,9.29
2019-05-17T00:16:37.545Z,9.29
2019-05-17T00:19:07.640Z,9.27
2019-05-17T00:21:37.240Z,9.28
2019-05-17T00:24:07.947Z,9.29
2019-05-17T00:26:39.777Z,9.29
2019-05-17T00:29:09.531Z,9.29
2019-05-17T00:31:39.068Z,9.29
2019-05-17T00:34:08.690Z,9.28
2019-05-17T00:36:38.186Z,9.28
2019-05-17T00:39:07.798Z,9.26
2019-05-17T00:41:40.259Z,9.27
2019-05-17T00:44:09.751Z,9.27
2019-05-17T00:46:39.319Z,9.27
2019-05-17T00:49:08.819Z,9.27
2019-05-17T00:51:39.232Z,9.28
2019-05-17T00:54:08.736Z,9.30
2019-05-17T00:56:38.370Z,9.30
2019-05-17T00:59:07.837Z,9.31
2019-05-17T01:01:37.209Z,9.30
2019-05-17T01:04:06.965Z,9.29
2019-05-17T01:06:37.586Z,9.30
2019-05-17T01:09:08.514Z,9.30
2019-05-17T01:11:37.812Z,9.28
2019-05-17T01:14:08.804Z,9.26
2019-05-17T01:16:38.239Z,9.25
2019-05-17T01:19:07.632Z,9.22
2019-05-17T01:21:37.086Z,9.19
2019-05-17T01:24:06.935Z,9.16
2019-05-17T01:26:37.391Z,9.12
2019-05-17T01:29:07.131Z,9.07
2019-05-17T01:31:37.309Z,9.04
2019-05-17T01:34:07.537Z,9.02
2019-05-17T01:36:37.658Z,9.00
2019-05-17T01:39:17.062Z,9.00
2019-05-17T01:41:38.640Z,9.01
2019-05-17T01:44:08.142Z,9.01
2019-05-17T01:46:37.654Z,9.01
2019-05-17T01:49:07.038Z,9.00
2019-05-17T01:51:37.582Z,8.98
2019-05-17T01:54:07.075Z,8.98
2019-05-17T01:56:36.935Z,8.95
2019-05-17T01:59:06.986Z,8.93
2019-05-17T02:01:37.269Z,8.91
2019-05-17T02:04:06.803Z,8.86
2019-05-17T02:06:36.778Z,8.84
2019-05-17T02:09:07.553Z,8.78
2019-05-17T02:11:37.703Z,8.70
2019-05-17T02:14:07.161Z,8.60
2019-05-17T02:16:37.637Z,8.46
2019-05-17T02:19:07.400Z,8.30
2019-05-17T02:21:39.123Z,8.19
2019-05-17T02:24:08.132Z,8.14
2019-05-17T02:26:37.601Z,8.14
2019-05-17T02:29:07.101Z,8.17
2019-05-17T02:31:36.564Z,8.21
2019-05-17T02:34:06.076Z,8.26
2019-05-17T02:36:35.419Z,8.32
2019-05-17T02:39:05.977Z,8.36
2019-05-17T02:41:35.518Z,8.38
2019-05-17T02:44:05.191Z,8.41
2019-05-17T02:46:34.682Z,8.44
2019-05-17T02:49:04.104Z,8.47
2019-05-17T02:51:33.543Z,8.51
2019-05-17T02:54:04.248Z,8.55
2019-05-17T02:56:33.806Z,8.57
2019-05-17T02:59:03.837Z,8.60
2019-05-17T03:01:33.667Z,8.60
2019-05-17T03:04:03.968Z,8.55
2019-05-17T03:06:33.624Z,8.46
2019-05-17T03:09:03.651Z,8.39
2019-05-17T03:11:33.558Z,8.30
2019-05-17T03:14:04.033Z,8.22
2019-05-17T03:16:34.057Z,8.19
2019-05-17T03:19:04.378Z,8.13
2019-05-17T03:21:34.145Z,8.06
2019-05-17T03:24:03.841Z,7.91
2019-05-17T03:26:33.252Z,7.75
2019-05-17T03:29:03.503Z,7.57
2019-05-17T03:31:40.551Z,7.41
2019-05-17T03:34:06.765Z,7.26
2019-05-17T03:36:36.887Z,7.19
2019-05-17T03:39:07.369Z,7.07
2019-05-17T03:41:36.902Z,6.95
2019-05-17T03:44:06.410Z,6.91
2019-05-17T03:46:35.961Z,6.96
2019-05-17T03:49:05.424Z,7.04
2019-05-17T03:51:34.822Z,7.19
2019-05-17T03:54:04.310Z,7.33
2019-05-17T03:56:33.648Z,7.46
2019-05-17T03:59:03.898Z,7.55
2019-05-17T04:01:34.181Z,7.63
2019-05-17T04:04:03.677Z,7.74
2019-05-17T04:06:33.249Z,7.86
2019-05-17T04:09:03.873Z,7.97
2019-05-17T04:11:36.496Z,8.13
2019-05-17T04:14:04.929Z,8.29
2019-05-17T04:16:34.371Z,8.48
2019-05-17T04:19:03.843Z,8.67
2019-05-17T04:21:34.400Z,8.85
2019-05-17T04:24:04.029Z,8.98
2019-05-17T04:26:33.508Z,9.02
2019-05-17T04:29:03.697Z,8.97
2019-05-17T04:31:34.755Z,8.94
2019-05-17T04:34:04.754Z,8.91
2019-05-17T04:36:34.151Z,8.90
2019-05-17T04:39:04.810Z,8.93
2019-05-17T04:41:45.026Z,9.05
2019-05-17T04:44:05.344Z,9.23
2019-05-17T04:46:34.740Z,9.42
2019-05-17T04:49:04.219Z,9.56
2019-05-17T04:51:33.746Z,9.70
2019-05-17T04:54:03.620Z,9.85
2019-05-17T04:56:33.620Z,9.97
2019-05-17T04:59:03.744Z,10.09
2019-05-17T05:01:33.730Z,10.20
2019-05-17T05:04:03.941Z,10.35
2019-05-17T05:06:33.457Z,10.52
2019-05-17T05:09:03.467Z,10.71
2019-05-17T05:11:33.103Z,10.83
2019-05-17T05:14:03.068Z,11.04
2019-05-17T05:16:32.736Z,11.14
2019-05-17T05:19:03.003Z,11.28
2019-05-17T05:21:32.674Z,11.31
2019-05-17T05:24:02.597Z,11.34
2019-05-17T05:26:32.432Z,11.32
2019-05-17T05:29:02.346Z,11.33
2019-05-17T05:31:32.239Z,11.38
2019-05-17T05:34:02.061Z,11.28
2019-05-17T05:36:32.815Z,11.15
2019-05-17T05:39:02.584Z,10.95
2019-05-17T05:41:32.199Z,10.76
2019-05-17T05:44:02.059Z,10.58
2019-05-17T05:46:31.897Z,10.55
2019-05-17T05:49:02.005Z,10.67
2019-05-17T05:51:32.087Z,10.96
2019-05-17T05:54:01.886Z,11.20
2019-05-17T05:56:32.595Z,11.42
2019-05-17T05:59:02.894Z,11.64
2019-05-17T06:01:32.807Z,11.88
2019-05-17T06:04:02.852Z,12.15
2019-05-17T06:06:33.285Z,12.33
2019-05-17T06:09:04.528Z,12.48
2019-05-17T06:11:33.924Z,12.73
2019-05-17T06:14:04.008Z,12.94
2019-05-17T06:16:33.404Z,13.02
2019-05-17T06:19:02.909Z,12.89
2019-05-17T06:21:32.313Z,12.64
2019-05-17T06:24:02.651Z,12.55
2019-05-17T06:26:32.205Z,12.54
2019-05-17T06:29:02.752Z,12.48
2019-05-17T06:31:33.334Z,12.31
2019-05-17T06:34:04.691Z,11.96
2019-05-17T06:36:35.091Z,11.72
2019-05-17T06:39:06.490Z,11.53
2019-05-17T06:41:35.913Z,11.39
2019-05-17T06:44:05.340Z,11.34
2019-05-17T06:46:34.724Z,11.40
2019-05-17T06:49:04.492Z,11.43
2019-05-17T06:51:34.025Z,11.55
2019-05-17T06:54:03.552Z,11.98
2019-05-17T06:56:32.978Z,12.44
2019-05-17T06:59:02.545Z,12.83
2019-05-17T07:01:31.922Z,13.06
2019-05-17T07:04:01.445Z,13.22
2019-05-17T07:06:32.565Z,13.31
2019-05-17T07:09:02.022Z,13.36
2019-05-17T07:11:31.514Z,13.38
2019-05-17T07:14:01.026Z,13.44
2019-05-17T07:16:30.559Z,13.41
2019-05-17T07:19:00.168Z,13.47
2019-05-17T07:21:29.839Z,13.53
2019-05-17T07:23:59.510Z,13.61
2019-05-17T07:26:30.211Z,13.47
2019-05-17T07:28:59.811Z,13.54
2019-05-17T07:31:30.183Z,13.70
2019-05-17T07:33:59.957Z,13.68
2019-05-17T07:36:30.649Z,13.55
2019-05-17T07:39:00.886Z,13.55
2019-05-17T07:41:30.442Z,13.56
2019-05-17T07:44:00.389Z,13.75
2019-05-17T07:46:30.114Z,13.98
2019-05-17T07:49:00.413Z,14.05
2019-05-17T07:51:30.224Z,14.28
2019-05-17T07:53:59.889Z,14.72
2019-05-17T07:56:30.554Z,15.07
2019-05-17T07:59:00.211Z,15.43
2019-05-17T08:01:29.849Z,15.54
2019-05-17T08:04:00.666Z,15.42
2019-05-17T08:06:30.733Z,15.47
2019-05-17T08:09:04.062Z,15.75
2019-05-17T08:11:31.702Z,16.04
2019-05-17T08:14:01.257Z,16.25
2019-05-17T08:16:30.638Z,16.46
2019-05-17T08:19:00.471Z,16.53
2019-05-17T08:21:30.597Z,16.44
2019-05-17T08:24:00.333Z,16.08
2019-05-17T08:26:29.895Z,15.78
2019-05-17T08:29:00.739Z,15.53
2019-05-17T08:31:30.595Z,15.24
2019-05-17T08:34:00.205Z,15.21
2019-05-17T08:36:29.945Z,15.12
2019-05-17T08:38:59.876Z,15.06
2019-05-17T08:41:31.702Z,14.96
2019-05-17T08:44:01.968Z,14.79
2019-05-17T08:46:31.347Z,14.57
2019-05-17T08:49:00.773Z,14.27
2019-05-17T08:51:30.628Z,13.96
2019-05-17T08:54:00.281Z,13.68
2019-05-17T08:56:30.956Z,13.46
2019-05-17T08:59:00.914Z,13.49
2019-05-17T09:01:30.521Z,13.64
2019-05-17T09:04:00.066Z,13.96
2019-05-17T09:06:29.682Z,14.43
2019-05-17T09:09:00.775Z,14.87
2019-05-17T09:11:30.403Z,15.00
2019-05-17T09:14:02.022Z,14.91
2019-05-17T09:16:31.076Z,14.66
2019-05-17T09:19:00.731Z,14.44
2019-05-17T09:21:31.402Z,14.42
2019-05-17T09:24:01.103Z,14.51
2019-05-17T09:26:30.511Z,14.61
2019-05-17T09:29:01.347Z,14.73
2019-05-17T09:31:31.138Z,14.96
2019-05-17T09:34:00.492Z,15.22
2019-05-17T09:36:30.444Z,15.24
2019-05-17T09:39:00.245Z,15.16
2019-05-17T09:41:29.779Z,15.16
2019-05-17T09:44:11.643Z,15.30
2019-05-17T09:46:30.458Z,15.58
2019-05-17T09:49:01.138Z,15.83
2019-05-17T09:51:30.958Z,15.92
2019-05-17T09:54:00.419Z,15.80
2019-05-17T09:56:30.246Z,15.86
2019-05-17T09:59:00.461Z,16.06
2019-05-17T10:01:30.505Z,16.84
2019-05-17T10:04:00.052Z,17.62
2019-05-17T10:06:29.490Z,18.09
2019-05-17T10:09:00.208Z,18.36
2019-05-17T10:11:30.759Z,18.44
2019-05-17T10:14:01.321Z,17.98
2019-05-17T10:16:30.971Z,17.29
2019-05-17T10:19:00.419Z,16.67
2019-05-17T10:21:30.440Z,16.16
2019-05-17T10:24:00.253Z,15.77
2019-05-17T10:26:30.459Z,15.63
2019-05-17T10:28:59.978Z,15.54
2019-05-17T10:31:30.420Z,15.58
2019-05-17T10:34:01.053Z,15.53
2019-05-17T10:36:30.578Z,15.53
2019-05-17T10:38:59.955Z,15.39
2019-05-17T10:41:30.134Z,15.47
2019-05-17T10:43:59.719Z,15.69
2019-05-17T10:46:29.978Z,15.95
2019-05-17T10:48:59.739Z,16.41
2019-05-17T10:51:29.653Z,17.08
2019-05-17T10:53:59.976Z,17.55
2019-05-17T10:56:29.525Z,17.70
2019-05-17T10:59:00.102Z,17.81
2019-05-17T11:01:30.587Z,17.95
2019-05-17T11:04:00.284Z,17.74
2019-05-17T11:06:30.174Z,17.65
2019-05-17T11:08:59.767Z,17.68
2019-05-17T11:11:29.359Z,17.72
2019-05-17T11:13:58.722Z,17.49
2019-05-17T11:16:28.294Z,17.29
2019-05-17T11:18:57.693Z,16.98
2019-05-17T11:21:27.175Z,16.94
2019-05-17T11:23:56.714Z,16.93
2019-05-17T11:26:26.119Z,16.93
2019-05-17T11:28:55.499Z,16.75
2019-05-17T11:31:25.138Z,16.54
2019-05-17T11:33:54.545Z,16.26
2019-05-17T11:36:24.141Z,15.76
2019-05-17T11:38:53.722Z,15.41
2019-05-17T11:41:23.302Z,15.24
2019-05-17T11:43:52.785Z,15.35
2019-05-17T11:46:35.272Z,15.36
2019-05-17T11:48:53.363Z,15.30
2019-05-17T11:51:22.946Z,15.14
2019-05-17T11:53:52.388Z,14.85
2019-05-17T11:56:21.752Z,14.62
2019-05-17T11:58:51.234Z,14.42
2019-05-17T12:01:21.822Z,14.30
2019-05-17T12:03:51.319Z,14.21
2019-05-17T12:06:20.899Z,14.16
2019-05-17T12:08:50.330Z,14.15
2019-05-17T12:11:19.916Z,14.20
2019-05-17T12:13:49.348Z,14.36
2019-05-17T12:16:18.778Z,14.50
2019-05-17T12:18:48.275Z,14.79
2019-05-17T12:21:17.833Z,15.04
2019-05-17T12:23:47.418Z,15.20
2019-05-17T12:26:16.978Z,15.22
2019-05-17T12:28:46.471Z,15.42
2019-05-17T12:31:15.985Z,15.61
2019-05-17T12:33:45.399Z,15.93
2019-05-17T12:36:14.802Z,16.53
2019-05-17T12:38:44.317Z,17.03
2019-05-17T12:41:13.893Z,17.53
2019-05-17T12:43:43.337Z,17.99
2019-05-17T12:46:12.698Z,18.33
2019-05-17T12:48:42.098Z,18.78
2019-05-17T12:51:11.572Z,19.08
2019-05-17T12:53:40.982Z,19.25
2019-05-17T12:56:10.516Z,19.39
2019-05-17T12:58:40.013Z,19.57
2019-05-17T13:01:10.539Z,19.79
2019-05-17T13:03:39.986Z,19.88
2019-05-17T13:06:09.424Z,20.43
2019-05-17T13:08:38.807Z,20.85
2019-05-17T13:11:09.321Z,21.14
2019-05-17T13:13:38.693Z,21.53
2019-05-17T13:16:17.341Z,22.07
2019-05-17T13:18:39.436Z,22.32
2019-05-17T13:21:09.187Z,22.72
2019-05-17T13:23:38.623Z,23.46
2019-05-17T13:26:08.117Z,23.73
2019-05-17T13:28:37.521Z,24.70
2019-05-17T13:31:06.992Z,26.08
2019-05-17T13:33:36.472Z,27.25
2019-05-17T13:36:05.964Z,27.78
2019-05-17T13:38:35.718Z,28.08
2019-05-17T13:41:05.179Z,27.73
2019-05-17T13:43:34.595Z,27.02
2019-05-17T13:46:04.001Z,26.34
2019-05-17T13:48:33.478Z,26.26
2019-05-17T13:51:02.983Z,26.13
2019-05-17T13:53:32.299Z,25.55
2019-05-17T13:56:01.853Z,25.56
2019-05-17T13:58:31.248Z,26.70
2019-05-17T14:01:00.674Z,28.10
2019-05-17T14:03:30.281Z,28.35
2019-05-17T14:05:59.770Z,27.99
2019-05-17T14:08:29.316Z,27.44
2019-05-17T14:10:58.721Z,26.92
2019-05-17T14:13:28.244Z,25.78
2019-05-17T14:15:57.660Z,25.20
2019-05-17T14:18:27.159Z,24.68
2019-05-17T14:20:56.600Z,24.25
2019-05-17T14:23:26.065Z,24.58
2019-05-17T14:25:55.467Z,24.59
2019-05-17T14:28:24.861Z,24.48
2019-05-17T14:30:54.399Z,25.67
2019-05-17T14:33:23.970Z,26.57
2019-05-17T14:35:53.513Z,27.02
2019-05-17T14:38:22.897Z,26.96
2019-05-17T14:41:08.877Z,26.19
2019-05-17T14:43:23.854Z,25.10
2019-05-17T14:45:53.335Z,23.87
2019-05-17T14:48:22.732Z,22.86
2019-05-17T14:50:52.128Z,21.86
2019-05-17T14:53:21.657Z,21.22
2019-05-17T14:55:51.069Z,21.02
2019-05-17T14:58:20.658Z,21.13
2019-05-17T15:00:50.137Z,21.27
2019-05-17T15:03:19.713Z,21.28
2019-05-17T15:05:49.274Z,20.97
2019-05-17T15:08:18.798Z,20.60
2019-05-17T15:10:48.229Z,20.27
2019-05-17T15:13:17.669Z,20.01
2019-05-17T15:15:47.166Z,19.88
2019-05-17T15:18:16.648Z,20.06
2019-05-17T15:20:46.042Z,20.42
2019-05-17T15:23:15.474Z,20.69
2019-05-17T15:25:44.885Z,20.88
2019-05-17T15:28:14.297Z,21.01
2019-05-17T15:30:43.774Z,20.93
2019-05-17T15:33:15.424Z,20.53
2019-05-17T15:35:44.926Z,20.04
2019-05-17T15:38:14.312Z,19.50
2019-05-17T15:40:43.708Z,18.94
2019-05-17T15:43:13.317Z,18.39
2019-05-17T15:45:42.668Z,17.91
2019-05-17T15:48:12.310Z,17.58
2019-05-17T15:50:41.680Z,17.34
2019-05-17T15:53:11.300Z,17.10
2019-05-17T15:55:40.739Z,16.93
2019-05-17T15:58:10.224Z,16.79
2019-05-17T16:00:39.692Z,16.68
2019-05-17T16:03:09.291Z,16.69
2019-05-17T16:05:38.719Z,16.83
2019-05-17T16:08:08.231Z,17.06
2019-05-17T16:10:40.630Z,17.35
2019-05-17T16:13:10.044Z,17.63
2019-05-17T16:15:39.491Z,17.92
2019-05-17T16:18:08.919Z,18.15
2019-05-17T16:20:38.450Z,18.21
2019-05-17T16:23:07.988Z,18.31
2019-05-17T16:25:37.699Z,18.39
2019-05-17T16:28:07.374Z,18.39
2019-05-17T16:30:36.854Z,18.39
2019-05-17T16:33:06.392Z,18.43
2019-05-17T16:35:35.863Z,18.47
2019-05-17T16:38:05.249Z,18.51
2019-05-17T16:40:34.765Z,18.46
2019-05-17T16:43:17.054Z,18.34
2019-05-17T16:45:35.272Z,18.21
2019-05-17T16:48:04.707Z,17.88
2019-05-17T16:50:34.186Z,17.50
2019-05-17T16:53:06.219Z,17.19
2019-05-17T16:55:34.911Z,16.90
2019-05-17T16:58:04.362Z,16.63
2019-05-17T17:00:35.866Z,16.43
2019-05-17T17:03:05.792Z,16.34
2019-05-17T17:05:35.354Z,16.33
2019-05-17T17:08:05.250Z,16.39
2019-05-17T17:10:34.863Z,16.48
2019-05-17T17:13:04.482Z,16.60
2019-05-17T17:15:33.860Z,16.78
2019-05-17T17:18:03.293Z,16.92
2019-05-17T17:20:32.752Z,16.98
2019-05-17T17:23:02.114Z,17.01
2019-05-17T17:25:31.476Z,16.95
2019-05-17T17:28:01.029Z,16.86
2019-05-17T17:30:30.485Z,16.72
2019-05-17T17:32:59.990Z,16.56
2019-05-17T17:35:29.459Z,16.37
2019-05-17T17:37:58.946Z,16.19
2019-05-17T17:40:28.612Z,16.01
2019-05-17T17:42:58.077Z,15.83
2019-05-17T17:45:27.711Z,15.65
2019-05-17T17:47:57.303Z,15.47
2019-05-17T17:50:26.769Z,15.30
2019-05-17T17:52:56.179Z,15.11
2019-05-17T17:55:25.606Z,14.96
2019-05-17T17:57:55.206Z,14.87
2019-05-17T18:00:24.910Z,14.76
2019-05-17T18:02:54.272Z,14.71
2019-05-17T18:05:25.217Z,14.65
2019-05-17T18:07:54.958Z,14.58
2019-05-17T18:10:27.405Z,14.53
2019-05-17T18:12:56.994Z,14.48
2019-05-17T18:15:35.153Z,14.41
2019-05-17T18:18:04.823Z,14.35
2019-05-17T18:20:34.209Z,14.29
2019-05-17T18:23:03.593Z,14.26
2019-05-17T18:25:33.070Z,14.20
2019-05-17T18:28:02.500Z,14.15
2019-05-17T18:30:32.228Z,14.09
2019-05-17T18:33:01.586Z,14.05
2019-05-17T18:35:31.033Z,14.00
2019-05-17T18:38:00.387Z,13.95
2019-05-17T18:40:29.754Z,13.89
2019-05-17T18:42:59.235Z,13.82
2019-05-17T18:45:31.254Z,13.77
2019-05-17T18:48:00.888Z,13.72
2019-05-17T18:50:30.266Z,13.67
2019-05-17T18:52:59.960Z,13.62
2019-05-17T18:55:29.473Z,13.56
2019-05-17T18:57:58.891Z,13.51
2019-05-17T19:00:28.592Z,13.46
2019-05-17T19:02:58.097Z,13.42
2019-05-17T19:05:27.560Z,13.35
2019-05-17T19:07:57.023Z,13.30
2019-05-17T19:10:26.630Z,13.23
2019-05-17T19:12:56.056Z,13.17
2019-05-17T19:15:25.567Z,13.10
2019-05-17T19:17:55.050Z,13.04
2019-05-17T19:20:24.606Z,13.01
2019-05-17T19:22:54.182Z,12.97
2019-05-17T19:25:23.603Z,12.92
2019-05-17T19:27:53.132Z,12.88
2019-05-17T19:30:22.602Z,12.84
2019-05-17T19:32:51.929Z,12.78
2019-05-17T19:35:21.553Z,12.69
2019-05-17T19:37:50.859Z,12.62
2019-05-17T19:40:20.533Z,12.54
2019-05-17T19:42:50.042Z,12.47
2019-05-17T19:45:19.806Z,12.40
2019-05-17T19:47:49.430Z,12.35
2019-05-17T19:50:19.147Z,12.31
2019-05-17T19:52:48.703Z,12.27
2019-05-17T19:55:18.364Z,12.22
2019-05-17T19:57:47.883Z,12.17
2019-05-17T20:00:18.028Z,12.12
2019-05-17T20:02:47.382Z,12.08
2019-05-17T20:05:16.948Z,12.03
2019-05-17T20:07:46.456Z,11.97
2019-05-17T20:10:16.068Z,11.90
2019-05-17T20:12:45.492Z,11.85
2019-05-17T20:15:18.308Z,11.79
2019-05-17T20:17:47.800Z,11.75
2019-05-17T20:20:18.200Z,11.70
2019-05-17T20:22:47.641Z,11.63
2019-05-17T20:25:17.246Z,11.58
2019-05-17T20:27:46.731Z,11.54
2019-05-17T20:30:16.607Z,11.49
2019-05-17T20:32:46.116Z,11.45
2019-05-17T20:35:18.085Z,11.39
2019-05-17T20:37:47.389Z,11.34
2019-05-17T20:40:18.025Z,11.29
2019-05-17T20:42:47.461Z,11.23
2019-05-17T20:45:30.629Z,11.16
2019-05-17T20:47:48.176Z,11.08
2019-05-17T20:50:17.708Z,11.00
2019-05-17T20:52:47.267Z,10.92
2019-05-17T20:55:17.002Z,10.84
2019-05-17T20:57:46.561Z,10.81
2019-05-17T21:00:17.462Z,10.78
2019-05-17T21:02:47.088Z,10.71
2019-05-17T21:05:18.424Z,10.63
2019-05-17T21:07:47.832Z,10.56
2019-05-17T21:10:17.453Z,10.52
2019-05-17T21:12:47.006Z,10.46
2019-05-17T21:15:16.410Z,10.39
2019-05-17T21:17:45.902Z,10.29
2019-05-17T21:20:15.885Z,10.17
2019-05-17T21:22:45.281Z,10.04
2019-05-17T21:25:14.873Z,9.92
2019-05-17T21:27:44.331Z,9.80
2019-05-17T21:30:13.732Z,9.68
2019-05-17T21:32:43.206Z,9.53
2019-05-17T21:35:12.928Z,9.39
2019-05-17T21:37:42.461Z,9.26
2019-05-17T21:40:12.167Z,9.14
2019-05-17T21:42:41.745Z,9.04
2019-05-17T21:45:11.672Z,8.93
2019-05-17T21:47:41.172Z,8.86
2019-05-17T21:50:10.725Z,8.78
2019-05-17T21:52:40.319Z,8.68
2019-05-17T21:55:09.786Z,8.63
2019-05-17T21:57:39.307Z,8.60
2019-05-17T22:00:11.510Z,8.56
2019-05-17T22:02:41.131Z,8.49
2019-05-17T22:05:10.557Z,8.39
2019-05-17T22:07:40.122Z,8.32
2019-05-17T22:10:09.774Z,8.26
2019-05-17T22:12:39.152Z,8.19
2019-05-17T22:15:08.625Z,8.12
2019-05-17T22:17:37.919Z,8.04
2019-05-17T22:20:07.266Z,7.98
2019-05-17T22:22:36.672Z,7.92
2019-05-17T22:25:06.341Z,7.89
2019-05-17T22:27:35.697Z,7.89
2019-05-17T22:30:05.710Z,7.88
2019-05-17T22:32:35.128Z,7.85
2019-05-17T22:35:04.884Z,7.84
2019-05-17T22:37:34.202Z,7.81
2019-05-17T22:40:03.738Z,7.77
2019-05-17T22:42:33.154Z,7.75
2019-05-17T22:45:02.702Z,7.75
2019-05-17T22:47:31.991Z,7.72
2019-05-17T22:50:01.345Z,7.67
2019-05-17T22:52:30.791Z,7.64
2019-05-17T22:55:00.307Z,7.59
2019-05-17T22:57:30.233Z,7.56
2019-05-17T22:59:59.852Z,7.54
2019-05-17T23:02:29.204Z,7.51
2019-05-17T23:04:58.702Z,7.46
2019-05-17T23:07:28.108Z,7.41
2019-05-17T23:09:57.575Z,7.37
2019-05-17T23:12:27.023Z,7.30
2019-05-17T23:14:56.527Z,7.27
2019-05-17T23:17:26.052Z,7.26
2019-05-17T23:19:55.646Z,7.24
2019-05-17T23:22:25.045Z,7.19
2019-05-17T23:24:54.420Z,7.14
2019-05-17T23:27:23.907Z,7.10
2019-05-17T23:29:53.282Z,7.03
2019-05-17T23:32:23.552Z,7.03
2019-05-17T23:34:52.894Z,7.01
2019-05-17T23:37:22.548Z,6.98
2019-05-17T23:39:51.973Z,6.92
2019-05-17T23:42:21.404Z,6.92
2019-05-17T23:44:50.954Z,6.94
2019-05-17T23:47:20.452Z,6.92
2019-05-17T23:49:49.942Z,6.94
2019-05-17T23:52:19.473Z,6.95
2019-05-17T23:54:48.823Z,6.89
2019-05-17T23:57:18.187Z,6.90
2019-05-17T23:59:47.547Z,6.92
